sensor_id;sensor_type;location;lat;lon;timestamp;pressure;altitude;pressure_sealevel;temperature;humidity
55347;BME280;41218;55.700;38.270;2023-04-06T00:00:39;100533.38;;;5.30;67.66
55347;BME280;41218;55.700;38.270;2023-04-06T00:05:41;100513.53;;;5.24;67.47
55347;BME280;41218;55.700;38.270;2023-04-06T00:10:41;100524.19;;;5.26;67.19
55347;BME280;41218;55.700;38.270;2023-04-06T00:15:42;100523.81;;;5.18;67.34
55347;BME280;41218;55.700;38.270;2023-04-06T00:20:42;100526.53;;;5.18;67.59
55347;BME280;41218;55.700;38.270;2023-04-06T00:25:43;100529.56;;;5.08;67.82
55347;BME280;41218;55.700;38.270;2023-04-06T00:30:43;100526.00;;;5.08;67.90
55347;BME280;41218;55.700;38.270;2023-04-06T00:35:45;100518.91;;;5.07;67.79
55347;BME280;41218;55.700;38.270;2023-04-06T00:40:45;100526.97;;;5.03;67.54
55347;BME280;41218;55.700;38.270;2023-04-06T00:45:46;100516.44;;;4.96;67.76
55347;BME280;41218;55.700;38.270;2023-04-06T00:50:47;100526.41;;;4.92;67.81
55347;BME280;41218;55.700;38.270;2023-04-06T00:55:47;100520.38;;;4.81;68.01
55347;BME280;41218;55.700;38.270;2023-04-06T01:00:48;100518.25;;;4.78;68.39
55347;BME280;41218;55.700;38.270;2023-04-06T01:05:48;100522.91;;;4.78;68.19
55347;BME280;41218;55.700;38.270;2023-04-06T01:10:49;100516.94;;;4.76;68.03
55347;BME280;41218;55.700;38.270;2023-04-06T01:15:49;100522.22;;;4.72;68.10
55347;BME280;41218;55.700;38.270;2023-04-06T01:20:50;100514.16;;;4.67;68.25
55347;BME280;41218;55.700;38.270;2023-04-06T01:25:51;100517.00;;;4.62;67.99
55347;BME280;41218;55.700;38.270;2023-04-06T01:30:51;100516.44;;;4.51;68.40
55347;BME280;41218;55.700;38.270;2023-04-06T01:35:52;100518.81;;;4.44;68.42
55347;BME280;41218;55.700;38.270;2023-04-06T01:40:53;100518.00;;;4.44;68.33
55347;BME280;41218;55.700;38.270;2023-04-06T01:45:54;100522.66;;;4.43;68.42
55347;BME280;41218;55.700;38.270;2023-04-06T01:50:55;100516.19;;;4.39;68.12
55347;BME280;41218;55.700;38.270;2023-04-06T01:55:55;100509.81;;;4.30;68.64
55347;BME280;41218;55.700;38.270;2023-04-06T02:00:56;100523.91;;;4.37;68.84
55347;BME280;41218;55.700;38.270;2023-04-06T02:05:56;100519.88;;;4.34;68.56
55347;BME280;41218;55.700;38.270;2023-04-06T02:10:57;100525.94;;;4.31;68.90
55347;BME280;41218;55.700;38.270;2023-04-06T02:15:57;100525.56;;;4.24;68.69
55347;BME280;41218;55.700;38.270;2023-04-06T02:20:59;100528.72;;;4.17;68.59
55347;BME280;41218;55.700;38.270;2023-04-06T02:25:59;100537.41;;;4.19;68.83
55347;BME280;41218;55.700;38.270;2023-04-06T02:31:00;100539.97;;;4.16;68.59
55347;BME280;41218;55.700;38.270;2023-04-06T02:36:01;100538.47;;;4.10;68.75
55347;BME280;41218;55.700;38.270;2023-04-06T02:41:01;100539.59;;;4.09;68.90
55347;BME280;41218;55.700;38.270;2023-04-06T02:46:02;100550.31;;;4.05;68.65
55347;BME280;41218;55.700;38.270;2023-04-06T02:51:02;100558.34;;;4.01;69.15
55347;BME280;41218;55.700;38.270;2023-04-06T02:56:03;100565.63;;;4.06;68.95
55347;BME280;41218;55.700;38.270;2023-04-06T03:01:04;100570.59;;;4.04;68.72
55347;BME280;41218;55.700;38.270;2023-04-06T03:06:04;100566.56;;;4.01;69.00
55347;BME280;41218;55.700;38.270;2023-04-06T03:11:05;100564.22;;;3.95;69.02
55347;BME280;41218;55.700;38.270;2023-04-06T03:16:06;100567.06;;;3.90;68.83
55347;BME280;41218;55.700;38.270;2023-04-06T03:21:06;100571.53;;;3.86;69.22
55347;BME280;41218;55.700;38.270;2023-04-06T03:26:07;100564.34;;;3.76;69.09
55347;BME280;41218;55.700;38.270;2023-04-06T03:31:07;100588.75;;;3.86;69.10
55347;BME280;41218;55.700;38.270;2023-04-06T03:36:08;100574.34;;;3.80;69.10
55347;BME280;41218;55.700;38.270;2023-04-06T03:41:08;100580.13;;;3.79;69.02
55347;BME280;41218;55.700;38.270;2023-04-06T03:46:09;100595.94;;;3.82;69.45
55347;BME280;41218;55.700;38.270;2023-04-06T03:51:10;100595.81;;;3.87;69.11
55347;BME280;41218;55.700;38.270;2023-04-06T03:56:10;100611.13;;;3.88;69.07
55347;BME280;41218;55.700;38.270;2023-04-06T04:01:11;100600.69;;;3.90;69.16
55347;BME280;41218;55.700;38.270;2023-04-06T04:06:11;100612.84;;;3.98;69.27
55347;BME280;41218;55.700;38.270;2023-04-06T04:11:12;100613.25;;;4.05;69.08
55347;BME280;41218;55.700;38.270;2023-04-06T04:16:12;100616.47;;;4.07;68.82
55347;BME280;41218;55.700;38.270;2023-04-06T04:21:13;100620.13;;;4.03;69.24
55347;BME280;41218;55.700;38.270;2023-04-06T04:26:14;100616.09;;;4.00;69.34
55347;BME280;41218;55.700;38.270;2023-04-06T04:31:14;100619.72;;;4.09;69.34
55347;BME280;41218;55.700;38.270;2023-04-06T04:36:17;100614.16;;;4.14;69.20
55347;BME280;41218;55.700;38.270;2023-04-06T04:41:18;100622.66;;;4.27;69.31
55347;BME280;41218;55.700;38.270;2023-04-06T04:46:18;100629.66;;;4.33;68.61
55347;BME280;41218;55.700;38.270;2023-04-06T04:51:19;100628.72;;;4.37;68.45
55347;BME280;41218;55.700;38.270;2023-04-06T04:56:20;100625.59;;;4.44;68.22
55347;BME280;41218;55.700;38.270;2023-04-06T05:01:20;100617.88;;;4.46;68.38
55347;BME280;41218;55.700;38.270;2023-04-06T05:06:21;100624.22;;;4.55;68.50
55347;BME280;41218;55.700;38.270;2023-04-06T05:11:21;100631.09;;;4.67;68.40
55347;BME280;41218;55.700;38.270;2023-04-06T05:16:22;100634.72;;;4.76;68.51
55347;BME280;41218;55.700;38.270;2023-04-06T05:21:22;100630.13;;;4.85;67.63
55347;BME280;41218;55.700;38.270;2023-04-06T05:26:23;100629.38;;;4.93;67.50
55347;BME280;41218;55.700;38.270;2023-04-06T05:31:24;100630.09;;;4.99;67.60
55347;BME280;41218;55.700;38.270;2023-04-06T05:36:25;100637.41;;;5.12;67.27
55347;BME280;41218;55.700;38.270;2023-04-06T05:41:26;100643.16;;;5.25;67.00
55347;BME280;41218;55.700;38.270;2023-04-06T05:46:27;100637.41;;;5.35;66.98
55347;BME280;41218;55.700;38.270;2023-04-06T05:51:27;100629.41;;;5.47;67.06
55347;BME280;41218;55.700;38.270;2023-04-06T05:56:28;100640.00;;;5.62;66.58
55347;BME280;41218;55.700;38.270;2023-04-06T06:01:30;100635.88;;;5.74;66.27
55347;BME280;41218;55.700;38.270;2023-04-06T06:06:30;100640.31;;;5.92;66.16
55347;BME280;41218;55.700;38.270;2023-04-06T06:11:31;100623.72;;;6.06;65.73
55347;BME280;41218;55.700;38.270;2023-04-06T06:16:33;100635.75;;;6.28;65.20
55347;BME280;41218;55.700;38.270;2023-04-06T06:21:34;100641.25;;;6.36;65.12
55347;BME280;41218;55.700;38.270;2023-04-06T06:26:34;100630.81;;;6.47;65.16
55347;BME280;41218;55.700;38.270;2023-04-06T06:31:37;100639.53;;;6.67;64.15
55347;BME280;41218;55.700;38.270;2023-04-06T06:36:37;100633.59;;;6.82;64.19
55347;BME280;41218;55.700;38.270;2023-04-06T06:41:38;100644.91;;;6.98;63.42
55347;BME280;41218;55.700;38.270;2023-04-06T06:46:38;100633.75;;;7.12;63.14
55347;BME280;41218;55.700;38.270;2023-04-06T06:51:40;100643.75;;;7.25;62.91
55347;BME280;41218;55.700;38.270;2023-04-06T06:56:40;100628.03;;;7.43;62.40
55347;BME280;41218;55.700;38.270;2023-04-06T07:01:41;100619.09;;;7.55;62.13
55347;BME280;41218;55.700;38.270;2023-04-06T07:06:42;100633.25;;;7.74;61.27
55347;BME280;41218;55.700;38.270;2023-04-06T07:11:42;100634.53;;;7.86;60.99
55347;BME280;41218;55.700;38.270;2023-04-06T07:16:43;100623.31;;;7.99;60.62
55347;BME280;41218;55.700;38.270;2023-04-06T07:21:45;100626.91;;;8.21;60.12
55347;BME280;41218;55.700;38.270;2023-04-06T07:26:45;100618.06;;;8.36;59.96
55347;BME280;41218;55.700;38.270;2023-04-06T07:31:46;100624.47;;;8.58;59.97
55347;BME280;41218;55.700;38.270;2023-04-06T07:36:47;100625.47;;;8.74;59.21
55347;BME280;41218;55.700;38.270;2023-04-06T07:41:47;100625.31;;;8.92;58.89
55347;BME280;41218;55.700;38.270;2023-04-06T07:46:48;100612.03;;;9.06;58.76
55347;BME280;41218;55.700;38.270;2023-04-06T07:51:49;100615.72;;;9.31;58.24
55347;BME280;41218;55.700;38.270;2023-04-06T07:56:49;100622.91;;;9.57;57.85
55347;BME280;41218;55.700;38.270;2023-04-06T08:01:51;100622.50;;;9.79;57.62
55347;BME280;41218;55.700;38.270;2023-04-06T08:06:52;100623.06;;;9.97;56.52
55347;BME280;41218;55.700;38.270;2023-04-06T08:11:52;100624.69;;;10.11;56.44
55347;BME280;41218;55.700;38.270;2023-04-06T08:16:53;100617.78;;;10.29;56.01
55347;BME280;41218;55.700;38.270;2023-04-06T08:21:53;100615.25;;;10.49;55.10
55347;BME280;41218;55.700;38.270;2023-04-06T08:26:54;100626.03;;;10.66;54.17
55347;BME280;41218;55.700;38.270;2023-04-06T08:31:54;100621.06;;;10.72;54.54
55347;BME280;41218;55.700;38.270;2023-04-06T08:36:55;100624.47;;;10.93;53.42
55347;BME280;41218;55.700;38.270;2023-04-06T08:41:55;100622.47;;;11.06;52.69
55347;BME280;41218;55.700;38.270;2023-04-06T08:47:01;100625.00;;;11.11;52.84
55347;BME280;41218;55.700;38.270;2023-04-06T08:52:06;100617.88;;;11.26;52.14
55347;BME280;41218;55.700;38.270;2023-04-06T08:57:08;100615.06;;;11.38;52.47
55347;BME280;41218;55.700;38.270;2023-04-06T09:02:15;100610.25;;;11.51;51.73
55347;BME280;41218;55.700;38.270;2023-04-06T09:07:17;100607.78;;;11.62;51.72
55347;BME280;41218;55.700;38.270;2023-04-06T09:12:28;100613.22;;;11.74;50.43
55347;BME280;41218;55.700;38.270;2023-04-06T09:17:30;100615.28;;;11.77;50.41
55347;BME280;41218;55.700;38.270;2023-04-06T09:22:39;100610.72;;;11.85;49.88
55347;BME280;41218;55.700;38.270;2023-04-06T09:27:40;100607.09;;;11.97;49.75
55347;BME280;41218;55.700;38.270;2023-04-06T09:32:54;100595.03;;;12.05;48.48
55347;BME280;41218;55.700;38.270;2023-04-06T09:37:55;100581.84;;;12.18;49.32
55347;BME280;41218;55.700;38.270;2023-04-06T09:42:56;100598.09;;;12.35;49.14
55347;BME280;41218;55.700;38.270;2023-04-06T09:47:59;100590.81;;;12.47;48.38
55347;BME280;41218;55.700;38.270;2023-04-06T09:53:00;100602.97;;;12.58;46.14
55347;BME280;41218;55.700;38.270;2023-04-06T09:58:06;100600.28;;;12.61;46.25
55347;BME280;41218;55.700;38.270;2023-04-06T10:08:29;100581.22;;;12.79;45.79
55347;BME280;41218;55.700;38.270;2023-04-06T10:13:33;100588.97;;;12.90;45.48
55347;BME280;41218;55.700;38.270;2023-04-06T10:18:33;100588.22;;;12.93;45.77
55347;BME280;41218;55.700;38.270;2023-04-06T10:23:57;100593.94;;;13.00;44.81
55347;BME280;41218;55.700;38.270;2023-04-06T10:29:02;100584.19;;;13.10;43.92
55347;BME280;41218;55.700;38.270;2023-04-06T10:34:03;100586.25;;;13.13;45.50
55347;BME280;41218;55.700;38.270;2023-04-06T10:39:05;100585.13;;;13.17;45.52
55347;BME280;41218;55.700;38.270;2023-04-06T10:44:06;100586.31;;;13.16;45.34
55347;BME280;41218;55.700;38.270;2023-04-06T10:49:11;100591.63;;;13.25;42.76
55347;BME280;41218;55.700;38.270;2023-04-06T10:54:15;100577.94;;;13.32;44.22
55347;BME280;41218;55.700;38.270;2023-04-06T10:59:22;100591.06;;;13.35;43.27
55347;BME280;41218;55.700;38.270;2023-04-06T11:04:24;100584.41;;;13.40;44.19
55347;BME280;41218;55.700;38.270;2023-04-06T11:09:28;100583.75;;;13.47;44.22
55347;BME280;41218;55.700;38.270;2023-04-06T11:14:29;100577.00;;;13.48;44.09
55347;BME280;41218;55.700;38.270;2023-04-06T11:19:31;100584.19;;;13.49;43.85
55347;BME280;41218;55.700;38.270;2023-04-06T11:24:32;100581.88;;;13.54;44.08
55347;BME280;41218;55.700;38.270;2023-04-06T11:29:32;100591.13;;;13.62;44.36
55347;BME280;41218;55.700;38.270;2023-04-06T11:34:38;100586.50;;;13.70;44.08
55347;BME280;41218;55.700;38.270;2023-04-06T11:39:42;100582.94;;;13.69;44.02
55347;BME280;41218;55.700;38.270;2023-04-06T11:44:43;100585.41;;;13.74;43.20
55347;BME280;41218;55.700;38.270;2023-04-06T11:49:48;100577.88;;;13.75;42.41
55347;BME280;41218;55.700;38.270;2023-04-06T11:54:52;100576.28;;;13.74;42.47
55347;BME280;41218;55.700;38.270;2023-04-06T11:59:52;100573.84;;;13.72;42.79
55347;BME280;41218;55.700;38.270;2023-04-06T12:04:53;100572.78;;;13.80;41.71
55347;BME280;41218;55.700;38.270;2023-04-06T12:09:54;100568.00;;;13.77;41.35
55347;BME280;41218;55.700;38.270;2023-04-06T12:14:55;100560.38;;;13.74;41.97
55347;BME280;41218;55.700;38.270;2023-04-06T12:19:56;100571.13;;;13.76;42.11
55347;BME280;41218;55.700;38.270;2023-04-06T12:24:57;100571.22;;;13.79;42.30
55347;BME280;41218;55.700;38.270;2023-04-06T12:29:57;100555.69;;;13.78;42.52
55347;BME280;41218;55.700;38.270;2023-04-06T12:34:58;100549.41;;;13.81;42.00
55347;BME280;41218;55.700;38.270;2023-04-06T12:39:58;100558.97;;;13.84;42.28
55347;BME280;41218;55.700;38.270;2023-04-06T12:44:59;100555.06;;;13.89;42.54
55347;BME280;41218;55.700;38.270;2023-04-06T12:49:59;100561.13;;;13.94;42.12
55347;BME280;41218;55.700;38.270;2023-04-06T12:55:01;100561.19;;;13.98;41.27
55347;BME280;41218;55.700;38.270;2023-04-06T13:00:02;100547.22;;;13.94;41.93
55347;BME280;41218;55.700;38.270;2023-04-06T13:05:03;100559.19;;;13.98;41.50
55347;BME280;41218;55.700;38.270;2023-04-06T13:10:04;100544.00;;;13.92;41.55
55347;BME280;41218;55.700;38.270;2023-04-06T13:15:05;100550.53;;;14.03;41.75
55347;BME280;41218;55.700;38.270;2023-04-06T13:20:06;100543.16;;;13.88;41.52
55347;BME280;41218;55.700;38.270;2023-04-06T13:25:07;100536.31;;;13.82;41.72
55347;BME280;41218;55.700;38.270;2023-04-06T13:30:08;100547.50;;;13.86;41.70
55347;BME280;41218;55.700;38.270;2023-04-06T13:35:09;100539.09;;;13.82;40.97
55347;BME280;41218;55.700;38.270;2023-04-06T13:40:11;100540.72;;;13.83;40.33
55347;BME280;41218;55.700;38.270;2023-04-06T13:45:12;100548.97;;;13.79;40.34
55347;BME280;41218;55.700;38.270;2023-04-06T13:50:12;100546.13;;;13.76;40.64
55347;BME280;41218;55.700;38.270;2023-04-06T13:55:13;100544.47;;;13.71;40.01
55347;BME280;41218;55.700;38.270;2023-04-06T14:00:14;100550.75;;;13.68;39.84
55347;BME280;41218;55.700;38.270;2023-04-06T14:05:14;100542.81;;;13.67;38.90
55347;BME280;41218;55.700;38.270;2023-04-06T14:10:15;100550.59;;;13.57;39.37
55347;BME280;41218;55.700;38.270;2023-04-06T14:15:16;100543.69;;;13.48;39.44
55347;BME280;41218;55.700;38.270;2023-04-06T14:20:17;100544.53;;;13.52;39.67
55347;BME280;41218;55.700;38.270;2023-04-06T14:25:18;100541.94;;;13.39;39.98
55347;BME280;41218;55.700;38.270;2023-04-06T14:30:19;100555.72;;;13.32;39.47
55347;BME280;41218;55.700;38.270;2023-04-06T14:35:20;100555.91;;;13.23;39.71
55347;BME280;41218;55.700;38.270;2023-04-06T14:40:20;100550.59;;;13.15;39.61
55347;BME280;41218;55.700;38.270;2023-04-06T14:45:21;100552.06;;;13.09;39.26
55347;BME280;41218;55.700;38.270;2023-04-06T14:50:22;100548.28;;;12.97;39.41
55347;BME280;41218;55.700;38.270;2023-04-06T14:55:23;100559.69;;;12.92;39.55
55347;BME280;41218;55.700;38.270;2023-04-06T15:00:23;100553.94;;;12.81;39.44
55347;BME280;41218;55.700;38.270;2023-04-06T15:05:24;100552.19;;;12.73;39.72
55347;BME280;41218;55.700;38.270;2023-04-06T15:10:25;100546.03;;;12.64;39.75
55347;BME280;41218;55.700;38.270;2023-04-06T15:15:26;100563.38;;;12.61;39.63
55347;BME280;41218;55.700;38.270;2023-04-06T15:20:26;100565.84;;;12.47;39.50
55347;BME280;41218;55.700;38.270;2023-04-06T15:25:27;100565.97;;;12.34;39.83
55347;BME280;41218;55.700;38.270;2023-04-06T15:30:28;100564.13;;;12.22;39.92
55347;BME280;41218;55.700;38.270;2023-04-06T15:35:28;100563.53;;;12.13;39.94
55347;BME280;41218;55.700;38.270;2023-04-06T15:40:29;100571.88;;;11.97;39.78
55347;BME280;41218;55.700;38.270;2023-04-06T15:45:29;100555.97;;;11.78;39.91
55347;BME280;41218;55.700;38.270;2023-04-06T15:50:30;100567.19;;;11.70;40.08
55347;BME280;41218;55.700;38.270;2023-04-06T15:55:31;100580.16;;;11.66;40.17
55347;BME280;41218;55.700;38.270;2023-04-06T16:00:32;100586.22;;;11.55;40.11
55347;BME280;41218;55.700;38.270;2023-04-06T16:05:32;100598.19;;;11.43;39.87
55347;BME280;41218;55.700;38.270;2023-04-06T16:10:33;100607.00;;;11.33;40.57
55347;BME280;41218;55.700;38.270;2023-04-06T16:15:34;100606.97;;;11.17;40.20
55347;BME280;41218;55.700;38.270;2023-04-06T16:20:34;100613.81;;;11.08;40.41
55347;BME280;41218;55.700;38.270;2023-04-06T16:25:35;100626.91;;;10.95;40.71
55347;BME280;41218;55.700;38.270;2023-04-06T16:30:37;100634.88;;;10.84;40.82
55347;BME280;41218;55.700;38.270;2023-04-06T16:35:47;100641.69;;;10.74;43.12
55347;BME280;41218;55.700;38.270;2023-04-06T16:40:48;100637.34;;;10.61;41.99
55347;BME280;41218;55.700;38.270;2023-04-06T16:45:49;100642.66;;;10.54;42.22
55347;BME280;41218;55.700;38.270;2023-04-06T16:50:51;100646.59;;;10.40;42.61
55347;BME280;41218;55.700;38.270;2023-04-06T16:55:51;100665.03;;;10.36;43.71
55347;BME280;41218;55.700;38.270;2023-04-06T17:00:52;100662.00;;;10.29;44.51
55347;BME280;41218;55.700;38.270;2023-04-06T17:05:52;100673.03;;;10.17;43.91
55347;BME280;41218;55.700;38.270;2023-04-06T17:10:53;100679.69;;;10.03;43.93
55347;BME280;41218;55.700;38.270;2023-04-06T17:15:53;100684.66;;;9.98;44.24
55347;BME280;41218;55.700;38.270;2023-04-06T17:20:55;100679.13;;;9.86;44.79
55347;BME280;41218;55.700;38.270;2023-04-06T17:25:56;100672.38;;;9.62;44.67
55347;BME280;41218;55.700;38.270;2023-04-06T17:30:58;100692.81;;;9.61;45.91
55347;BME280;41218;55.700;38.270;2023-04-06T17:35:59;100703.06;;;9.60;45.65
55347;BME280;41218;55.700;38.270;2023-04-06T17:41:00;100701.75;;;9.46;45.63
55347;BME280;41218;55.700;38.270;2023-04-06T17:46:04;100713.69;;;9.37;46.60
55347;BME280;41218;55.700;38.270;2023-04-06T17:51:05;100706.75;;;9.31;47.75
55347;BME280;41218;55.700;38.270;2023-04-06T17:56:06;100707.31;;;9.25;47.74
55347;BME280;41218;55.700;38.270;2023-04-06T18:01:07;100714.16;;;9.18;48.02
55347;BME280;41218;55.700;38.270;2023-04-06T18:06:13;100706.50;;;9.03;46.44
55347;BME280;41218;55.700;38.270;2023-04-06T18:11:16;100713.91;;;8.90;46.09
55347;BME280;41218;55.700;38.270;2023-04-06T18:16:17;100707.63;;;8.81;46.66
55347;BME280;41218;55.700;38.270;2023-04-06T18:21:20;100705.13;;;8.67;46.73
55347;BME280;41218;55.700;38.270;2023-04-06T18:26:20;100723.59;;;8.67;47.04
55347;BME280;41218;55.700;38.270;2023-04-06T18:31:21;100717.47;;;8.61;47.64
55347;BME280;41218;55.700;38.270;2023-04-06T18:36:22;100726.75;;;8.56;48.05
55347;BME280;41218;55.700;38.270;2023-04-06T18:41:22;100728.88;;;8.51;48.53
55347;BME280;41218;55.700;38.270;2023-04-06T18:46:24;100725.97;;;8.47;48.77
55347;BME280;41218;55.700;38.270;2023-04-06T18:51:28;100723.91;;;8.35;47.36
55347;BME280;41218;55.700;38.270;2023-04-06T18:56:29;100724.25;;;8.25;49.63
55347;BME280;41218;55.700;38.270;2023-04-06T19:01:31;100728.31;;;8.19;48.96
55347;BME280;41218;55.700;38.270;2023-04-06T19:06:32;100724.66;;;8.06;49.94
55347;BME280;41218;55.700;38.270;2023-04-06T19:11:35;100735.38;;;7.99;49.98
55347;BME280;41218;55.700;38.270;2023-04-06T19:16:35;100735.84;;;7.92;49.80
55347;BME280;41218;55.700;38.270;2023-04-06T19:21:40;100727.31;;;7.85;50.79
55347;BME280;41218;55.700;38.270;2023-04-06T19:26:40;100713.91;;;7.75;50.83
55347;BME280;41218;55.700;38.270;2023-04-06T19:31:41;100721.19;;;7.71;50.91
55347;BME280;41218;55.700;38.270;2023-04-06T19:36:43;100732.84;;;7.68;51.34
55347;BME280;41218;55.700;38.270;2023-04-06T19:41:44;100728.16;;;7.59;51.62
55347;BME280;41218;55.700;38.270;2023-04-06T19:46:45;100723.19;;;7.44;51.04
55347;BME280;41218;55.700;38.270;2023-04-06T19:51:45;100713.44;;;7.29;50.63
55347;BME280;41218;55.700;38.270;2023-04-06T19:56:46;100725.59;;;7.19;51.02
55347;BME280;41218;55.700;38.270;2023-04-06T20:01:47;100725.44;;;7.16;51.36
55347;BME280;41218;55.700;38.270;2023-04-06T20:06:48;100736.91;;;7.09;51.10
55347;BME280;41218;55.700;38.270;2023-04-06T20:11:48;100732.03;;;6.97;50.06
55347;BME280;41218;55.700;38.270;2023-04-06T20:16:49;100731.53;;;6.87;51.10
55347;BME280;41218;55.700;38.270;2023-04-06T20:21:50;100738.19;;;6.86;51.11
55347;BME280;41218;55.700;38.270;2023-04-06T20:26:50;100742.34;;;6.83;51.08
55347;BME280;41218;55.700;38.270;2023-04-06T20:31:52;100737.34;;;6.76;51.27
55347;BME280;41218;55.700;38.270;2023-04-06T20:36:52;100733.00;;;6.75;51.80
55347;BME280;41218;55.700;38.270;2023-04-06T20:41:52;100742.66;;;6.73;52.40
55347;BME280;41218;55.700;38.270;2023-04-06T20:46:53;100740.41;;;6.75;52.69
55347;BME280;41218;55.700;38.270;2023-04-06T20:51:53;100741.38;;;6.70;52.54
55347;BME280;41218;55.700;38.270;2023-04-06T20:56:54;100744.91;;;6.62;52.08
55347;BME280;41218;55.700;38.270;2023-04-06T21:01:59;100749.69;;;6.48;51.88
55347;BME280;41218;55.700;38.270;2023-04-06T21:07:02;100752.72;;;6.29;50.76
55347;BME280;41218;55.700;38.270;2023-04-06T21:12:04;100753.47;;;6.20;52.10
55347;BME280;41218;55.700;38.270;2023-04-06T21:17:05;100743.75;;;6.14;52.31
55347;BME280;41218;55.700;38.270;2023-04-06T21:22:06;100740.84;;;6.11;52.48
55347;BME280;41218;55.700;38.270;2023-04-06T21:27:07;100764.78;;;6.19;52.44
55347;BME280;41218;55.700;38.270;2023-04-06T21:32:07;100756.66;;;6.14;52.43
55347;BME280;41218;55.700;38.270;2023-04-06T21:37:08;100758.06;;;6.03;53.00
55347;BME280;41218;55.700;38.270;2023-04-06T21:42:08;100765.91;;;5.95;52.76
55347;BME280;41218;55.700;38.270;2023-04-06T21:47:09;100770.19;;;5.88;51.50
55347;BME280;41218;55.700;38.270;2023-04-06T21:52:09;100765.97;;;5.81;52.85
55347;BME280;41218;55.700;38.270;2023-04-06T21:57:10;100763.56;;;5.80;53.47
55347;BME280;41218;55.700;38.270;2023-04-06T22:08:09;100769.91;;;5.67;54.16
55347;BME280;41218;55.700;38.270;2023-04-06T22:13:10;100762.19;;;5.69;55.15
55347;BME280;41218;55.700;38.270;2023-04-06T22:18:14;100759.53;;;5.63;55.29
55347;BME280;41218;55.700;38.270;2023-04-06T22:23:14;100768.03;;;5.53;54.37
55347;BME280;41218;55.700;38.270;2023-04-06T22:28:15;100761.78;;;5.39;54.74
55347;BME280;41218;55.700;38.270;2023-04-06T22:33:15;100763.22;;;5.36;54.97
55347;BME280;41218;55.700;38.270;2023-04-06T22:38:16;100763.84;;;5.33;55.45
55347;BME280;41218;55.700;38.270;2023-04-06T22:43:16;100761.31;;;5.23;55.62
55347;BME280;41218;55.700;38.270;2023-04-06T22:48:17;100767.44;;;5.20;55.24
55347;BME280;41218;55.700;38.270;2023-04-06T22:53:18;100760.13;;;5.15;55.80
55347;BME280;41218;55.700;38.270;2023-04-06T22:58:18;100767.16;;;5.08;56.15
55347;BME280;41218;55.700;38.270;2023-04-06T23:03:19;100772.94;;;5.06;56.03
55347;BME280;41218;55.700;38.270;2023-04-06T23:08:19;100768.09;;;5.03;56.55
55347;BME280;41218;55.700;38.270;2023-04-06T23:13:20;100766.16;;;5.04;56.51
55347;BME280;41218;55.700;38.270;2023-04-06T23:18:20;100759.66;;;4.99;56.59
55347;BME280;41218;55.700;38.270;2023-04-06T23:23:21;100761.19;;;4.92;56.35
55347;BME280;41218;55.700;38.270;2023-04-06T23:28:21;100752.91;;;4.83;56.93
55347;BME280;41218;55.700;38.270;2023-04-06T23:33:22;100749.75;;;4.76;57.10
55347;BME280;41218;55.700;38.270;2023-04-06T23:38:22;100741.88;;;4.60;57.19
55347;BME280;41218;55.700;38.270;2023-04-06T23:43:23;100744.59;;;4.60;57.78
55347;BME280;41218;55.700;38.270;2023-04-06T23:48:23;100748.56;;;4.54;57.62
55347;BME280;41218;55.700;38.270;2023-04-06T23:53:24;100734.66;;;4.37;57.98
55347;BME280;41218;55.700;38.270;2023-04-06T23:58:24;100736.09;;;4.34;58.61
